createdAt,value
2018-01-14T00:00:05.202Z,32.00
2018-01-14T00:02:32.425Z,30.88
2018-01-14T00:04:58.904Z,30.62
2018-01-14T00:07:26.156Z,28.20
2018-01-14T00:09:53.352Z,25.62
2018-01-14T00:12:19.879Z,28.45
2018-01-14T00:14:46.297Z,27.25
2018-01-14T00:17:12.764Z,24.83
2018-01-14T00:19:39.233Z,25.12
2018-01-14T00:22:05.641Z,29.02
2018-01-14T00:24:32.131Z,28.02
2018-01-14T00:26:59.292Z,30.60
2018-01-14T00:29:26.517Z,26.65
2018-01-14T00:31:53.705Z,29.42
2018-01-14T00:34:20.151Z,32.75
2018-01-14T00:36:46.573Z,32.20
2018-01-14T00:39:13.058Z,31.98
2018-01-14T00:41:40.257Z,33.88
2018-01-14T00:44:06.708Z,27.83
2018-01-14T00:46:33.181Z,29.70
2018-01-14T00:48:59.574Z,29.00
2018-01-14T00:51:26.011Z,26.67
2018-01-14T00:53:52.432Z,26.60
2018-01-14T00:56:18.877Z,24.83
2018-01-14T00:58:45.329Z,27.42
2018-01-14T01:01:11.740Z,24.70
2018-01-14T01:03:38.151Z,26.45
2018-01-14T01:06:04.572Z,22.33
2018-01-14T01:08:31.025Z,24.60
2018-01-14T01:10:57.498Z,22.92
2018-01-14T01:13:23.945Z,26.77
2018-01-14T01:15:50.539Z,25.67
2018-01-14T01:18:16.952Z,27.30
2018-01-14T01:20:43.357Z,32.92
2018-01-14T01:23:10.565Z,29.73
2018-01-14T01:25:37.028Z,28.95
2018-01-14T01:28:04.208Z,29.52
2018-01-14T01:30:30.676Z,35.10
2018-01-14T01:32:57.097Z,28.00
2018-01-14T01:35:23.560Z,30.15
2018-01-14T01:37:49.984Z,39.47
2018-01-14T01:40:17.221Z,31.15
2018-01-14T01:42:43.645Z,30.08
2018-01-14T01:45:10.085Z,29.10
2018-01-14T01:47:36.534Z,25.20
2018-01-14T01:50:02.940Z,27.10
2018-01-14T01:52:29.352Z,40.65
2018-01-14T01:54:55.781Z,33.55
2018-01-14T01:57:22.256Z,29.90
2018-01-14T01:59:48.697Z,30.58
2018-01-14T02:02:15.116Z,30.77
2018-01-14T02:04:41.554Z,25.75
2018-01-14T02:07:07.983Z,28.42
2018-01-14T02:09:34.431Z,30.05
2018-01-14T02:12:00.869Z,30.67
2018-01-14T02:14:27.266Z,30.95
2018-01-14T02:16:53.696Z,28.60
2018-01-14T02:19:20.464Z,27.30
2018-01-14T02:21:46.896Z,27.17
2018-01-14T02:24:13.309Z,27.20
2018-01-14T02:26:40.052Z,27.90
2018-01-14T02:29:06.481Z,27.05
2018-01-14T02:31:32.898Z,30.80
2018-01-14T02:33:59.336Z,30.12
2018-01-14T02:36:25.776Z,27.75
2018-01-14T02:38:52.213Z,29.60
2018-01-14T02:41:18.653Z,27.85
2018-01-14T02:43:45.065Z,28.55
2018-01-14T02:46:11.824Z,26.23
2018-01-14T02:48:38.269Z,28.62
2018-01-14T02:51:04.713Z,32.03
2018-01-14T02:53:31.153Z,30.35
2018-01-14T02:55:57.605Z,29.23
2018-01-14T02:58:24.171Z,30.17
2018-01-14T03:00:50.669Z,30.15
2018-01-14T03:03:17.216Z,28.87
2018-01-14T03:05:43.632Z,28.50
2018-01-14T03:08:10.054Z,33.00
2018-01-14T03:10:36.482Z,36.42
2018-01-14T03:13:02.927Z,32.53
2018-01-14T03:15:29.372Z,32.75
2018-01-14T03:17:55.836Z,34.10
2018-01-14T03:20:22.270Z,29.92
2018-01-14T03:22:48.766Z,32.33
2018-01-14T03:25:15.237Z,29.95
2018-01-14T03:27:41.685Z,39.33
2018-01-14T03:30:08.101Z,32.80
2018-01-14T03:32:34.545Z,32.90
2018-01-14T03:35:00.961Z,30.02
2018-01-14T03:37:27.372Z,31.20
2018-01-14T03:39:53.781Z,30.67
2018-01-14T03:42:20.228Z,31.20
2018-01-14T03:44:47.392Z,29.63
2018-01-14T03:47:14.708Z,29.55
2018-01-14T03:49:41.108Z,32.55
2018-01-14T03:52:07.545Z,34.33
2018-01-14T03:54:33.977Z,33.83
2018-01-14T03:57:00.409Z,29.25
2018-01-14T03:59:26.875Z,28.55
2018-01-14T04:01:53.306Z,33.95
2018-01-14T04:04:19.749Z,33.42
2018-01-14T04:06:46.194Z,30.17
2018-01-14T04:09:13.397Z,34.55
2018-01-14T04:11:39.805Z,31.55
2018-01-14T04:14:06.344Z,35.97
2018-01-14T04:16:32.794Z,36.40
2018-01-14T04:18:59.224Z,35.03
2018-01-14T04:21:25.648Z,31.83
2018-01-14T04:23:52.064Z,31.30
2018-01-14T04:26:19.216Z,32.72
2018-01-14T04:28:45.628Z,36.30
2018-01-14T04:31:12.804Z,33.03
2018-01-14T04:33:39.212Z,33.35
2018-01-14T04:36:05.644Z,36.58
2018-01-14T04:38:32.224Z,33.53
2018-01-14T04:40:58.636Z,33.05
2018-01-14T04:43:25.045Z,33.50
2018-01-14T04:45:51.488Z,32.03
2018-01-14T04:48:18.657Z,32.33
2018-01-14T04:50:45.092Z,28.40
2018-01-14T04:53:11.620Z,32.15
2018-01-14T04:55:38.032Z,35.38
2018-01-14T04:58:05.185Z,33.40
2018-01-14T05:00:31.731Z,32.50
2018-01-14T05:02:58.176Z,34.28
2018-01-14T05:05:24.616Z,35.80
2018-01-14T05:07:51.088Z,30.58
2018-01-14T05:10:17.505Z,30.10
2018-01-14T05:12:43.941Z,36.10
2018-01-14T05:15:10.365Z,30.67
2018-01-14T05:17:36.973Z,34.65
2018-01-14T05:20:03.392Z,39.78
2018-01-14T05:22:29.805Z,33.15
2018-01-14T05:24:56.253Z,36.53
2018-01-14T05:27:22.669Z,34.22
2018-01-14T05:29:49.113Z,30.83
2018-01-14T05:32:16.248Z,34.65
2018-01-14T05:34:42.668Z,33.85
2018-01-14T05:37:09.109Z,33.30
2018-01-14T05:39:35.536Z,30.92
2018-01-14T05:42:02.012Z,34.95
2018-01-14T05:44:29.168Z,36.08
2018-01-14T05:46:55.648Z,36.53
2018-01-14T05:49:22.056Z,31.80
2018-01-14T05:51:48.476Z,30.65
2018-01-14T05:54:14.930Z,34.42
2018-01-14T05:56:41.372Z,29.23
2018-01-14T05:59:07.793Z,32.33
2018-01-14T06:01:34.208Z,34.42
2018-01-14T06:04:00.613Z,33.25
2018-01-14T06:06:27.256Z,34.67
2018-01-14T06:08:53.664Z,32.13
2018-01-14T06:11:20.058Z,31.23
2018-01-14T06:13:46.500Z,30.20
2018-01-14T06:16:12.937Z,32.38
2018-01-14T06:18:39.370Z,32.28
2018-01-14T06:21:05.778Z,30.75
2018-01-14T06:23:32.259Z,30.73
2018-01-14T06:25:58.736Z,36.70
2018-01-14T06:28:25.181Z,35.50
2018-01-14T06:30:51.644Z,33.25
2018-01-14T06:33:18.066Z,34.75
2018-01-14T06:35:44.524Z,30.35
2018-01-14T06:38:10.925Z,30.65
2018-01-14T06:40:37.434Z,30.75
2018-01-14T06:43:03.868Z,33.20
2018-01-14T06:45:30.321Z,32.50
2018-01-14T06:47:56.740Z,30.40
2018-01-14T06:50:23.225Z,33.75
2018-01-14T06:52:49.642Z,35.38
2018-01-14T06:55:16.057Z,34.47
2018-01-14T06:57:42.485Z,29.98
2018-01-14T07:00:08.909Z,36.10
2018-01-14T07:02:35.374Z,32.25
2018-01-14T07:05:01.804Z,34.90
2018-01-14T07:07:28.239Z,28.55
2018-01-14T07:09:54.646Z,32.28
2018-01-14T07:12:21.077Z,35.53
2018-01-14T07:14:47.547Z,30.67
2018-01-14T07:17:13.957Z,37.15
2018-01-14T07:19:41.205Z,40.05
2018-01-14T07:22:07.616Z,35.78
2018-01-14T07:24:35.079Z,37.33
2018-01-14T07:27:01.528Z,64.53
2018-01-14T07:29:27.952Z,47.00
2018-01-14T07:31:54.461Z,35.35
2018-01-14T07:34:20.881Z,31.05
2018-01-14T07:36:47.320Z,33.72
2018-01-14T07:39:13.736Z,29.98
2018-01-14T07:41:40.872Z,27.58
2018-01-14T07:44:07.301Z,32.60
2018-01-14T07:46:33.715Z,38.05
2018-01-14T07:49:00.276Z,37.40
2018-01-14T07:51:27.448Z,37.38
2018-01-14T07:53:53.874Z,34.42
2018-01-14T07:56:21.069Z,29.85
2018-01-14T07:58:47.536Z,34.40
2018-01-14T08:01:14.010Z,31.10
2018-01-14T08:03:40.461Z,32.65
2018-01-14T08:06:06.900Z,26.48
2018-01-14T08:08:33.326Z,25.55
2018-01-14T08:10:59.788Z,30.95
2018-01-14T08:13:26.252Z,30.92
2018-01-14T08:15:52.716Z,25.10
2018-01-14T08:18:19.160Z,29.60
2018-01-14T08:20:45.596Z,28.80
2018-01-14T08:23:12.028Z,27.27
2018-01-14T08:25:39.193Z,29.58
2018-01-14T08:28:05.657Z,26.52
2018-01-14T08:30:32.884Z,31.08
2018-01-14T08:32:59.344Z,31.60
2018-01-14T08:35:25.794Z,25.67
2018-01-14T08:37:52.968Z,32.10
2018-01-14T08:40:19.393Z,28.27
2018-01-14T08:42:45.877Z,32.60
2018-01-14T08:45:12.341Z,27.27
2018-01-14T08:47:38.884Z,28.38
2018-01-14T08:50:06.081Z,24.55
2018-01-14T08:52:33.285Z,29.42
2018-01-14T08:54:59.775Z,29.25
2018-01-14T08:57:26.252Z,31.02
2018-01-14T08:59:53.432Z,28.92
2018-01-14T09:02:19.906Z,30.08
2018-01-14T09:04:46.323Z,26.37
2018-01-14T09:07:12.803Z,23.15
2018-01-14T09:09:39.266Z,27.17
2018-01-14T09:12:05.703Z,50.95
2018-01-14T09:14:32.191Z,41.20
2018-01-14T09:16:58.677Z,31.73
2018-01-14T09:19:25.114Z,28.45
2018-01-14T09:21:51.599Z,28.15
2018-01-14T09:24:18.098Z,27.80
2018-01-14T09:26:44.586Z,26.37
2018-01-14T09:29:11.045Z,29.30
2018-01-14T09:31:37.505Z,28.30
2018-01-14T09:34:03.957Z,29.10
2018-01-14T09:36:30.430Z,29.10
2018-01-14T09:38:56.885Z,26.65
2018-01-14T09:41:23.331Z,30.55
2018-01-14T09:43:49.789Z,29.45
2018-01-14T09:46:16.955Z,29.90
2018-01-14T09:48:44.120Z,26.58
2018-01-14T09:51:10.563Z,31.02
2018-01-14T09:53:36.969Z,27.77
2018-01-14T09:56:03.403Z,31.50
2018-01-14T09:58:31.557Z,24.67
2018-01-14T10:00:58.020Z,27.17
2018-01-14T10:03:24.504Z,24.30
2018-01-14T10:05:50.940Z,31.55
2018-01-14T10:08:17.397Z,23.95
2018-01-14T10:10:44.605Z,23.40
2018-01-14T10:13:11.057Z,25.88
2018-01-14T10:15:37.522Z,26.20
2018-01-14T10:18:03.951Z,27.62
2018-01-14T10:20:30.455Z,23.75
2018-01-14T10:22:57.641Z,20.67
2018-01-14T10:25:24.841Z,27.10
2018-01-14T10:27:51.265Z,30.65
2018-01-14T10:30:17.701Z,26.92
2018-01-14T10:32:44.150Z,26.90
2018-01-14T10:35:10.612Z,23.30
2018-01-14T10:37:37.090Z,23.75
2018-01-14T10:40:03.560Z,23.77
2018-01-14T10:42:30.034Z,24.12
2018-01-14T10:44:56.457Z,26.67
2018-01-14T10:47:23.672Z,25.50
2018-01-14T10:49:50.875Z,29.37
2018-01-14T10:52:17.324Z,23.38
2018-01-14T10:54:43.768Z,27.25
2018-01-14T10:57:10.201Z,25.98
2018-01-14T10:59:37.445Z,24.33
2018-01-14T11:02:03.985Z,24.70
2018-01-14T11:04:30.423Z,24.58
2018-01-14T11:06:56.877Z,25.40
2018-01-14T11:09:24.093Z,23.83
2018-01-14T11:11:50.525Z,24.10
2018-01-14T11:14:16.964Z,26.02
2018-01-14T11:16:43.428Z,23.83
2018-01-14T11:19:10.625Z,26.73
2018-01-14T11:21:37.036Z,24.92
2018-01-14T11:24:04.257Z,24.87
2018-01-14T11:26:30.732Z,28.38
2018-01-14T11:28:57.235Z,26.30
2018-01-14T11:31:23.673Z,25.95
2018-01-14T11:33:50.129Z,24.40
2018-01-14T11:36:16.558Z,20.80
2018-01-14T11:38:43.748Z,20.62
2018-01-14T11:41:10.233Z,27.08
2018-01-14T11:43:37.420Z,22.35
2018-01-14T11:46:03.861Z,25.70
2018-01-14T11:48:30.330Z,21.08
2018-01-14T11:50:56.805Z,31.55
2018-01-14T11:53:23.239Z,28.00
2018-01-14T11:55:49.669Z,22.70
2018-01-14T11:58:16.108Z,24.92
2018-01-14T12:00:42.541Z,21.92
2018-01-14T12:03:09.307Z,21.35
2018-01-14T12:05:35.729Z,21.05
2018-01-14T12:08:02.167Z,21.27
2018-01-14T12:10:28.619Z,20.55
2018-01-14T12:12:55.057Z,18.23
2018-01-14T12:15:21.548Z,20.58
2018-01-14T12:17:47.988Z,21.75
2018-01-14T12:20:14.436Z,19.75
2018-01-14T12:22:40.872Z,20.23
2018-01-14T12:25:07.260Z,21.30
2018-01-14T12:27:33.713Z,17.60
2018-01-14T12:30:00.129Z,20.00
2018-01-14T12:32:34.493Z,21.87
2018-01-14T12:35:00.901Z,17.62
2018-01-14T12:37:27.520Z,19.85
2018-01-14T12:39:54.709Z,20.37
2018-01-14T12:42:21.137Z,19.12
2018-01-14T12:44:47.569Z,17.35
2018-01-14T12:47:14.049Z,18.67
2018-01-14T12:49:41.304Z,18.05
2018-01-14T12:52:08.496Z,19.75
2018-01-14T12:54:34.963Z,19.75
2018-01-14T12:57:01.529Z,19.23
2018-01-14T12:59:28.715Z,21.83
2018-01-14T13:01:55.160Z,19.67
2018-01-14T13:04:21.703Z,22.60
2018-01-14T13:06:48.140Z,23.77
2018-01-14T13:09:14.584Z,24.20
2018-01-14T13:11:41.131Z,24.60
2018-01-14T13:14:07.743Z,36.78
2018-01-14T13:16:34.186Z,22.73
2018-01-14T13:19:00.791Z,24.40
2018-01-14T13:21:27.257Z,30.52
2018-01-14T13:23:53.770Z,25.88
2018-01-14T13:26:20.293Z,20.30
2018-01-14T13:28:46.803Z,22.35
2018-01-14T13:31:13.302Z,23.15
2018-01-14T13:33:39.748Z,21.70
2018-01-14T13:36:06.201Z,21.55
2018-01-14T13:38:32.637Z,19.42
2018-01-14T13:40:59.064Z,22.58
2018-01-14T13:43:26.294Z,21.00
2018-01-14T13:45:52.756Z,22.85
2018-01-14T13:48:19.916Z,20.58
2018-01-14T13:50:46.331Z,23.85
2018-01-14T13:53:13.531Z,21.98
2018-01-14T13:55:40.061Z,26.37
2018-01-14T13:58:06.503Z,22.00
2018-01-14T14:00:32.964Z,21.95
2018-01-14T14:03:00.154Z,23.27
2018-01-14T14:05:26.606Z,21.37
2018-01-14T14:07:53.149Z,24.52
2018-01-14T14:10:19.737Z,21.92
2018-01-14T14:12:46.229Z,23.02
2018-01-14T14:15:13.467Z,20.95
2018-01-14T14:17:39.924Z,23.92
2018-01-14T14:20:06.351Z,23.62
2018-01-14T14:22:32.783Z,24.65
2018-01-14T14:24:59.252Z,23.10
2018-01-14T14:27:26.410Z,24.37
2018-01-14T14:29:52.864Z,24.52
2018-01-14T14:32:19.300Z,21.45
2018-01-14T14:34:46.074Z,23.85
2018-01-14T14:37:12.520Z,23.67
2018-01-14T14:39:38.945Z,23.17
2018-01-14T14:42:05.395Z,26.25
2018-01-14T14:44:31.875Z,29.55
2018-01-14T14:46:58.309Z,32.40
2018-01-14T14:49:24.747Z,28.90
2018-01-14T14:51:51.200Z,24.83
2018-01-14T14:54:17.624Z,25.12
2018-01-14T14:56:44.096Z,25.00
2018-01-14T14:59:10.544Z,24.87
2018-01-14T15:01:37.733Z,19.62
2018-01-14T15:04:04.198Z,22.62
2018-01-14T15:06:30.667Z,26.90
2018-01-14T15:08:57.191Z,27.40
2018-01-14T15:11:24.498Z,28.15
2018-01-14T15:13:50.984Z,26.25
2018-01-14T15:16:18.191Z,25.35
2018-01-14T15:18:44.605Z,22.70
2018-01-14T15:21:12.200Z,27.65
2018-01-14T15:23:38.641Z,22.13
2018-01-14T15:26:05.950Z,24.63
2018-01-14T15:28:32.419Z,22.27
2018-01-14T15:30:58.849Z,24.10
2018-01-14T15:33:25.322Z,20.42
2018-01-14T15:35:51.800Z,21.83
2018-01-14T15:38:18.234Z,21.40
2018-01-14T15:40:44.721Z,26.40
2018-01-14T15:43:11.888Z,24.63
2018-01-14T15:45:38.393Z,28.40
2018-01-14T15:48:05.589Z,26.23
2018-01-14T15:50:32.250Z,25.77
2018-01-14T15:52:59.483Z,31.83
2018-01-14T15:55:25.975Z,24.02
2018-01-14T15:57:52.540Z,24.63
2018-01-14T16:00:18.982Z,26.98
2018-01-14T16:02:45.509Z,26.65
2018-01-14T16:05:11.979Z,26.17
2018-01-14T16:07:38.412Z,25.60
2018-01-14T16:10:04.908Z,26.50
2018-01-14T16:12:31.329Z,26.42
2018-01-14T16:14:57.833Z,27.37
2018-01-14T16:17:24.288Z,22.90
2018-01-14T16:19:50.774Z,28.00
2018-01-14T16:22:17.252Z,28.98
2018-01-14T16:24:44.517Z,27.10
2018-01-14T16:27:10.962Z,27.33
2018-01-14T16:29:37.445Z,28.15
2018-01-14T16:32:03.933Z,31.45
2018-01-14T16:34:30.396Z,40.38
2018-01-14T16:36:56.887Z,34.90
2018-01-14T16:39:23.337Z,40.85
2018-01-14T16:41:49.985Z,39.10
2018-01-14T16:44:16.470Z,35.17
2018-01-14T16:46:43.681Z,29.23
2018-01-14T16:49:10.202Z,29.30
2018-01-14T16:51:36.649Z,26.17
2018-01-14T16:54:03.133Z,28.58
2018-01-14T16:56:29.597Z,30.02
2018-01-14T16:58:56.125Z,28.45
2018-01-14T17:01:22.666Z,32.15
2018-01-14T17:03:49.129Z,27.33
2018-01-14T17:06:15.599Z,24.80
2018-01-14T17:08:42.852Z,24.08
2018-01-14T17:11:09.363Z,26.15
2018-01-14T17:13:35.814Z,28.38
2018-01-14T17:16:02.311Z,25.77
2018-01-14T17:18:28.771Z,26.55
2018-01-14T17:20:55.348Z,27.70
2018-01-14T17:23:21.795Z,25.95
2018-01-14T17:25:48.236Z,29.00
2018-01-14T17:28:14.760Z,24.55
2018-01-14T17:30:41.192Z,24.48
2018-01-14T17:33:07.658Z,29.05
2018-01-14T17:35:34.102Z,24.67
2018-01-14T17:38:00.618Z,27.35
2018-01-14T17:40:27.076Z,27.65
2018-01-14T17:42:54.313Z,25.75
2018-01-14T17:45:20.824Z,27.85
2018-01-14T17:47:47.310Z,24.92
2018-01-14T17:50:14.696Z,25.90
2018-01-14T17:52:41.046Z,25.60
2018-01-14T17:55:07.476Z,25.55
2018-01-14T17:57:33.939Z,21.12
2018-01-14T18:00:01.369Z,29.37
2018-01-14T18:02:27.830Z,25.05
2018-01-14T18:04:54.267Z,26.95
2018-01-14T18:07:21.528Z,24.58
2018-01-14T18:09:47.989Z,24.67
2018-01-14T18:12:14.449Z,23.52
2018-01-14T18:14:40.909Z,22.23
2018-01-14T18:17:14.343Z,25.62
2018-01-14T18:19:40.827Z,28.67
2018-01-14T18:22:07.256Z,24.65
2018-01-14T18:24:33.698Z,29.63
2018-01-14T18:27:00.180Z,27.17
2018-01-14T18:29:26.616Z,28.65
2018-01-14T18:31:53.578Z,28.27
2018-01-14T18:34:20.081Z,24.67
2018-01-14T18:36:46.537Z,27.98
2018-01-14T18:39:12.964Z,34.63
2018-01-14T18:41:39.431Z,36.58
2018-01-14T18:44:05.858Z,32.08
2018-01-14T18:46:32.435Z,26.42
2018-01-14T18:48:59.655Z,27.77
2018-01-14T18:51:26.228Z,27.73
2018-01-14T18:53:52.776Z,28.17
2018-01-14T18:56:19.312Z,27.40
2018-01-14T18:58:45.899Z,25.42
2018-01-14T19:01:12.431Z,31.10
2018-01-14T19:03:38.992Z,26.17
2018-01-14T19:06:06.227Z,44.88
2018-01-14T19:08:32.722Z,30.40
2018-01-14T19:10:59.253Z,33.33
2018-01-14T19:13:25.792Z,26.83
2018-01-14T19:15:52.340Z,27.83
2018-01-14T19:18:19.763Z,24.67
2018-01-14T19:20:46.442Z,23.00
2018-01-14T19:23:13.189Z,26.77
2018-01-14T19:25:39.772Z,21.08
2018-01-14T19:28:06.374Z,36.05
2018-01-14T19:30:33.713Z,24.80
2018-01-14T19:33:00.384Z,28.85
2018-01-14T19:35:26.986Z,22.92
2018-01-14T19:37:54.536Z,27.83
2018-01-14T19:40:22.004Z,25.08
2018-01-14T19:42:48.608Z,28.62
2018-01-14T19:45:15.272Z,24.37
2018-01-14T19:47:42.012Z,27.00
2018-01-14T19:50:09.417Z,26.83
2018-01-14T19:52:36.191Z,23.92
2018-01-14T19:55:03.106Z,24.20
2018-01-14T19:57:29.943Z,29.63
2018-01-14T19:59:56.751Z,29.45
2018-01-14T20:02:24.265Z,30.40
2018-01-14T20:04:50.952Z,26.85
2018-01-14T20:07:17.774Z,32.30
2018-01-14T20:09:44.643Z,30.45
2018-01-14T20:12:11.559Z,29.40
2018-01-14T20:14:39.069Z,31.35
2018-01-14T20:17:05.908Z,29.75
2018-01-14T20:19:32.700Z,30.67
2018-01-14T20:21:59.705Z,30.75
2018-01-14T20:24:26.438Z,30.62
2018-01-14T20:26:53.237Z,29.37
2018-01-14T20:29:20.084Z,31.40
2018-01-14T20:31:46.921Z,27.48
2018-01-14T20:34:14.438Z,32.75
2018-01-14T20:36:41.510Z,27.98
2018-01-14T20:39:08.969Z,29.25
2018-01-14T20:41:35.732Z,31.83
2018-01-14T20:44:03.287Z,27.75
2018-01-14T20:46:30.068Z,31.05
2018-01-14T20:48:56.873Z,28.12
2018-01-14T20:51:24.103Z,26.48
2018-01-14T20:53:50.668Z,31.58
2018-01-14T20:56:17.962Z,28.08
2018-01-14T20:58:44.431Z,32.00
2018-01-14T21:01:10.989Z,29.75
2018-01-14T21:03:37.449Z,27.80
2018-01-14T21:06:03.895Z,29.80
2018-01-14T21:08:30.396Z,27.40
2018-01-14T21:10:56.968Z,31.02
2018-01-14T21:13:23.433Z,29.05
2018-01-14T21:15:49.896Z,31.12
2018-01-14T21:18:17.110Z,32.17
2018-01-14T21:20:43.647Z,32.72
2018-01-14T21:23:10.111Z,30.05
2018-01-14T21:25:36.531Z,31.15
2018-01-14T21:28:02.982Z,28.45
2018-01-14T21:30:29.515Z,28.35
2018-01-14T21:32:55.970Z,30.73
2018-01-14T21:35:23.220Z,28.70
2018-01-14T21:37:49.702Z,30.42
2018-01-14T21:40:16.148Z,26.65
2018-01-14T21:42:42.625Z,32.22
2018-01-14T21:45:09.087Z,30.33
2018-01-14T21:47:35.544Z,31.10
2018-01-14T21:50:02.028Z,34.50
2018-01-14T21:52:28.536Z,28.45
2018-01-14T21:54:54.958Z,32.17
2018-01-14T21:57:21.393Z,27.85
2018-01-14T21:59:47.966Z,28.80
2018-01-14T22:02:15.199Z,29.73
2018-01-14T22:04:41.633Z,30.33
2018-01-14T22:07:08.107Z,36.40
2018-01-14T22:09:34.636Z,33.90
2018-01-14T22:12:01.081Z,28.02
2018-01-14T22:14:27.537Z,34.45
2018-01-14T22:16:54.046Z,34.75
2018-01-14T22:19:20.510Z,35.70
2018-01-14T22:21:46.944Z,33.67
2018-01-14T22:24:13.477Z,31.67
2018-01-14T22:26:40.620Z,34.45
2018-01-14T22:29:07.069Z,29.70
2018-01-14T22:31:34.375Z,30.02
2018-01-14T22:34:00.837Z,27.83
2018-01-14T22:36:27.304Z,30.75
2018-01-14T22:38:54.507Z,41.03
2018-01-14T22:41:20.956Z,30.98
2018-01-14T22:43:47.386Z,28.85
2018-01-14T22:46:13.846Z,29.55
2018-01-14T22:48:40.281Z,28.48
2018-01-14T22:51:06.729Z,30.98
2018-01-14T22:53:33.155Z,35.90
2018-01-14T22:55:59.588Z,33.90
2018-01-14T22:58:26.060Z,29.65
2018-01-14T23:00:52.575Z,27.17
2018-01-14T23:03:19.721Z,29.67
2018-01-14T23:05:46.869Z,29.42
2018-01-14T23:08:14.077Z,27.37
2018-01-14T23:10:40.575Z,28.48
2018-01-14T23:13:07.033Z,27.48
2018-01-14T23:15:33.459Z,27.37
2018-01-14T23:17:59.903Z,28.92
2018-01-14T23:20:26.336Z,34.22
2018-01-14T23:22:52.828Z,29.75
2018-01-14T23:25:19.279Z,30.85
2018-01-14T23:27:45.714Z,28.25
2018-01-14T23:30:12.213Z,31.85
2018-01-14T23:32:38.724Z,27.42
2018-01-14T23:35:05.442Z,28.42
2018-01-14T23:37:31.982Z,35.08
2018-01-14T23:39:58.438Z,31.08
2018-01-14T23:42:24.916Z,31.87
2018-01-14T23:44:51.366Z,28.15
2018-01-14T23:47:17.844Z,27.77
2018-01-14T23:49:44.297Z,28.35
2018-01-14T23:52:11.466Z,38.00
2018-01-14T23:54:37.916Z,37.58
2018-01-14T23:57:04.564Z,30.55
2018-01-14T23:59:31.002Z,35.38
